createdAt,value
2022-09-03T00:00:16.868Z,13.77
2022-09-03T00:02:47.438Z,14.05
2022-09-03T00:05:21.587Z,16.90
2022-09-03T00:07:56.239Z,14.85
2022-09-03T00:10:31.449Z,14.15
2022-09-03T00:13:02.784Z,21.08
2022-09-03T00:15:33.124Z,14.15
2022-09-03T00:18:05.539Z,25.70
2022-09-03T00:20:37.955Z,13.63
2022-09-03T00:23:08.182Z,13.48
2022-09-03T00:25:39.871Z,15.98
2022-09-03T00:28:13.663Z,12.48
2022-09-03T00:30:42.784Z,17.10
2022-09-03T00:33:13.588Z,12.38
2022-09-03T00:35:44.842Z,16.10
2022-09-03T00:38:11.682Z,17.95
2022-09-03T00:41:06.097Z,14.88
2022-09-03T00:43:46.313Z,17.50
2022-09-03T00:46:20.137Z,16.63
2022-09-03T00:49:06.035Z,14.68
2022-09-03T00:51:39.292Z,14.80
2022-09-03T00:54:14.060Z,15.45
2022-09-03T00:56:51.681Z,17.35
2022-09-03T00:59:31.204Z,17.42
2022-09-03T01:02:14.478Z,15.20
2022-09-03T01:04:56.929Z,14.60
2022-09-03T01:07:36.492Z,16.77
2022-09-03T01:10:16.397Z,15.30
2022-09-03T01:12:55.396Z,15.93
2022-09-03T01:15:31.542Z,16.77
2022-09-03T01:18:11.560Z,15.23
2022-09-03T01:20:50.927Z,15.48
2022-09-03T01:23:43.621Z,16.90
2022-09-03T01:26:38.036Z,16.55
2022-09-03T01:29:16.243Z,18.30
2022-09-03T01:31:59.009Z,20.17
2022-09-03T01:34:42.053Z,15.02
2022-09-03T01:37:17.607Z,17.67
2022-09-03T01:39:55.441Z,15.25
2022-09-03T01:42:32.688Z,15.43
2022-09-03T01:45:23.231Z,14.23
2022-09-03T01:48:03.424Z,16.92
2022-09-03T01:50:42.928Z,15.60
2022-09-03T01:53:25.610Z,16.73
2022-09-03T01:56:11.489Z,18.23
2022-09-03T01:58:44.366Z,17.70
2022-09-03T02:01:18.908Z,23.08
2022-09-03T02:03:47.150Z,23.02
2022-09-03T02:06:14.392Z,26.23
2022-09-03T02:08:42.014Z,22.45
2022-09-03T02:11:09.998Z,26.42
2022-09-03T02:13:40.537Z,28.77
2022-09-03T02:16:14.034Z,24.63
2022-09-03T02:18:47.310Z,24.30
2022-09-03T02:21:17.248Z,24.02
2022-09-03T02:23:44.193Z,22.50
2022-09-03T02:26:15.800Z,22.50
2022-09-03T02:28:42.751Z,24.45
2022-09-03T02:31:09.707Z,32.55
2022-09-03T02:33:39.766Z,33.90
2022-09-03T02:36:10.983Z,31.95
2022-09-03T02:38:38.020Z,31.42
2022-09-03T02:41:05.263Z,32.35
2022-09-03T02:43:37.733Z,32.92
2022-09-03T02:46:08.345Z,32.67
2022-09-03T02:48:35.625Z,39.58
2022-09-03T02:51:02.423Z,35.38
2022-09-03T02:53:42.606Z,31.58
2022-09-03T02:56:09.680Z,31.58
2022-09-03T02:58:36.546Z,32.65
2022-09-03T03:01:03.457Z,33.40
2022-09-03T03:03:30.631Z,29.40
2022-09-03T03:06:00.779Z,38.15
2022-09-03T03:08:29.075Z,36.60
2022-09-03T03:10:58.925Z,34.50
2022-09-03T03:13:26.355Z,37.25
2022-09-03T03:15:56.748Z,31.42
2022-09-03T03:18:24.193Z,31.65
2022-09-03T03:20:51.630Z,29.92
2022-09-03T03:23:18.492Z,32.30
2022-09-03T03:25:45.387Z,33.00
2022-09-03T03:28:13.980Z,30.58
2022-09-03T03:30:42.802Z,30.42
2022-09-03T03:33:10.212Z,32.83
2022-09-03T03:35:37.241Z,29.65
2022-09-03T03:38:05.102Z,29.08
2022-09-03T03:40:31.984Z,28.00
2022-09-03T03:42:58.838Z,29.73
2022-09-03T03:45:27.177Z,28.60
2022-09-03T03:47:57.552Z,32.13
2022-09-03T03:50:25.360Z,28.77
2022-09-03T03:52:52.239Z,30.13
2022-09-03T03:55:18.990Z,30.15
2022-09-03T03:57:45.782Z,29.90
2022-09-03T04:00:14.110Z,31.17
2022-09-03T04:02:42.405Z,31.02
2022-09-03T04:05:09.744Z,37.88
2022-09-03T04:07:37.219Z,30.90
2022-09-03T04:10:04.655Z,37.25
2022-09-03T04:12:31.442Z,35.72
2022-09-03T04:14:58.400Z,39.63
2022-09-03T04:17:25.557Z,38.08
2022-09-03T04:19:53.765Z,35.70
2022-09-03T04:22:20.856Z,38.13
2022-09-03T04:24:47.732Z,35.85
2022-09-03T04:27:14.546Z,42.38
2022-09-03T04:29:41.510Z,35.50
2022-09-03T04:32:26.718Z,33.38
2022-09-03T04:34:55.093Z,33.00
2022-09-03T04:37:21.916Z,27.25
2022-09-03T04:39:48.974Z,25.92
2022-09-03T04:42:16.020Z,29.25
2022-09-03T04:44:42.839Z,23.00
2022-09-03T04:47:09.940Z,23.80
2022-09-03T04:49:36.791Z,25.25
2022-09-03T04:52:05.129Z,24.38
2022-09-03T04:54:31.937Z,25.80
2022-09-03T04:56:58.760Z,29.73
2022-09-03T04:59:25.694Z,31.30
2022-09-03T05:01:56.786Z,26.70
2022-09-03T05:04:23.711Z,23.10
2022-09-03T05:06:50.491Z,29.77
2022-09-03T05:09:18.665Z,29.17
2022-09-03T05:11:45.436Z,30.67
2022-09-03T05:14:12.761Z,26.13
2022-09-03T05:16:39.830Z,26.42
2022-09-03T05:19:07.915Z,28.30
2022-09-03T05:21:38.428Z,26.13
2022-09-03T05:24:05.688Z,30.42
2022-09-03T05:26:37.744Z,30.70
2022-09-03T05:29:09.323Z,24.60
2022-09-03T05:31:39.021Z,25.77
2022-09-03T05:34:07.374Z,23.90
2022-09-03T05:36:36.412Z,27.00
2022-09-03T05:39:03.770Z,23.30
2022-09-03T05:41:31.863Z,23.77
2022-09-03T05:44:00.237Z,29.23
2022-09-03T05:46:32.168Z,20.25
2022-09-03T05:49:00.435Z,24.80
2022-09-03T05:51:27.861Z,24.42
2022-09-03T05:53:55.695Z,29.55
2022-09-03T05:56:24.214Z,24.80
2022-09-03T05:58:53.871Z,23.17
2022-09-03T06:01:23.731Z,21.48
2022-09-03T06:03:54.795Z,34.50
2022-09-03T06:06:25.698Z,31.52
2022-09-03T06:08:52.752Z,25.65
2022-09-03T06:11:19.724Z,20.45
2022-09-03T06:13:47.508Z,22.80
2022-09-03T06:16:14.715Z,23.52
2022-09-03T06:18:43.009Z,23.02
2022-09-03T06:21:09.827Z,25.27
2022-09-03T06:23:36.789Z,19.50
2022-09-03T06:26:08.182Z,20.60
2022-09-03T06:28:37.982Z,24.55
2022-09-03T06:31:06.635Z,24.10
2022-09-03T06:33:35.311Z,20.60
2022-09-03T06:36:08.877Z,21.60
2022-09-03T06:38:38.232Z,21.92
2022-09-03T06:41:07.636Z,18.83
2022-09-03T06:43:36.226Z,26.30
2022-09-03T06:46:05.505Z,20.45
2022-09-03T06:48:34.514Z,20.40
2022-09-03T06:51:03.782Z,22.52
2022-09-03T06:53:33.166Z,19.90
2022-09-03T06:56:02.037Z,17.77
2022-09-03T06:58:30.587Z,20.23
2022-09-03T07:01:02.370Z,19.85
2022-09-03T07:03:29.394Z,21.00
2022-09-03T07:06:00.810Z,18.92
2022-09-03T07:08:30.413Z,26.65
2022-09-03T07:10:57.228Z,25.95
2022-09-03T07:13:24.677Z,25.40
2022-09-03T07:16:01.640Z,24.75
2022-09-03T07:18:28.538Z,23.00
2022-09-03T07:20:59.099Z,32.17
2022-09-03T07:23:26.363Z,23.50
2022-09-03T07:25:55.997Z,25.42
2022-09-03T07:28:24.838Z,24.45
2022-09-03T07:30:52.016Z,19.75
2022-09-03T07:33:19.486Z,20.17
2022-09-03T07:35:47.020Z,27.95
2022-09-03T07:38:18.014Z,17.65
2022-09-03T07:40:44.810Z,20.10
2022-09-03T07:43:13.141Z,17.23
2022-09-03T07:45:39.930Z,21.35
2022-09-03T07:48:06.801Z,25.17
2022-09-03T07:50:39.240Z,31.50
2022-09-03T07:53:06.131Z,27.27
2022-09-03T07:55:33.542Z,19.35
2022-09-03T07:58:00.384Z,19.50
2022-09-03T08:00:28.785Z,19.33
2022-09-03T08:02:56.638Z,20.70
2022-09-03T08:05:23.522Z,17.50
2022-09-03T08:07:50.970Z,16.90
2022-09-03T08:10:18.010Z,18.02
2022-09-03T08:12:44.821Z,18.60
2022-09-03T08:15:11.655Z,18.27
2022-09-03T08:17:44.004Z,21.35
2022-09-03T08:20:11.032Z,18.77
2022-09-03T08:22:37.819Z,16.45
2022-09-03T08:25:05.164Z,23.05
2022-09-03T08:27:31.956Z,15.45
2022-09-03T08:30:04.020Z,15.10
2022-09-03T08:32:30.904Z,16.35
2022-09-03T08:34:59.799Z,18.48
2022-09-03T08:37:29.207Z,15.05
2022-09-03T08:39:56.102Z,14.18
2022-09-03T08:42:37.540Z,20.60
2022-09-03T08:45:10.351Z,13.13
2022-09-03T08:47:41.413Z,13.85
2022-09-03T08:50:15.721Z,13.95
2022-09-03T08:52:50.006Z,16.02
2022-09-03T08:55:22.644Z,15.02
2022-09-03T08:57:51.551Z,17.08
2022-09-03T09:00:18.605Z,14.20
2022-09-03T09:02:59.942Z,14.95
2022-09-03T09:05:42.964Z,14.55
2022-09-03T09:08:18.502Z,9.73
2022-09-03T09:10:47.831Z,12.85
2022-09-03T09:13:22.716Z,11.43
2022-09-03T09:16:00.088Z,15.40
2022-09-03T09:18:39.806Z,14.45
2022-09-03T09:21:17.711Z,9.77
2022-09-03T09:23:49.000Z,15.85
2022-09-03T09:26:18.225Z,10.93
2022-09-03T09:28:46.878Z,12.85
2022-09-03T09:31:18.857Z,14.02
2022-09-03T09:33:46.349Z,12.50
2022-09-03T09:36:17.635Z,16.48
2022-09-03T09:38:46.744Z,11.40
2022-09-03T09:41:15.972Z,10.90
2022-09-03T09:43:43.677Z,12.15
2022-09-03T09:46:14.475Z,11.10
2022-09-03T09:48:49.187Z,14.35
2022-09-03T09:51:21.617Z,18.63
2022-09-03T09:53:49.812Z,14.77
2022-09-03T09:56:23.999Z,23.42
2022-09-03T09:59:01.961Z,14.18
2022-09-03T10:01:30.544Z,15.13
2022-09-03T10:03:59.513Z,15.50
2022-09-03T10:06:48.572Z,16.73
2022-09-03T10:09:17.189Z,12.75
2022-09-03T10:11:47.905Z,14.27
2022-09-03T10:18:14.510Z,24.73
2022-09-03T10:20:50.006Z,12.07
2022-09-03T10:23:24.247Z,12.77
2022-09-03T10:26:04.462Z,17.92
2022-09-03T10:28:37.291Z,15.73
2022-09-03T10:31:19.467Z,16.92
2022-09-03T10:33:52.388Z,12.68
2022-09-03T10:36:25.029Z,17.08
2022-09-03T10:39:02.155Z,12.70
2022-09-03T10:41:41.569Z,13.63
2022-09-03T10:44:30.398Z,14.82
2022-09-03T10:47:04.495Z,14.35
2022-09-03T10:49:46.170Z,14.93
2022-09-03T10:52:20.992Z,21.55
2022-09-03T10:55:03.556Z,13.82
2022-09-03T10:57:41.032Z,17.57
2022-09-03T11:00:10.792Z,18.08
2022-09-03T11:03:34.414Z,17.58
2022-09-03T11:06:06.570Z,16.93
2022-09-03T11:08:39.570Z,19.13
2022-09-03T11:11:15.301Z,18.83
2022-09-03T11:13:47.534Z,18.88
2022-09-03T11:16:20.076Z,23.87
2022-09-03T11:18:49.566Z,25.98
2022-09-03T11:21:20.940Z,24.20
2022-09-03T11:23:55.291Z,23.60
2022-09-03T11:26:26.452Z,18.13
2022-09-03T11:29:00.693Z,21.60
2022-09-03T11:31:39.600Z,22.00
2022-09-03T11:34:08.268Z,44.67
2022-09-03T11:36:38.128Z,22.17
2022-09-03T11:39:16.882Z,20.55
2022-09-03T11:41:57.474Z,18.73
2022-09-03T11:44:24.528Z,19.20
2022-09-03T11:46:56.730Z,17.63
2022-09-03T11:49:30.118Z,26.47
2022-09-03T11:52:01.216Z,18.67
2022-09-03T11:54:28.606Z,19.77
2022-09-03T11:57:13.302Z,20.70
2022-09-03T11:59:42.250Z,19.63
2022-09-03T12:02:27.331Z,20.95
2022-09-03T12:05:13.980Z,22.17
2022-09-03T12:08:11.220Z,20.45
2022-09-03T12:10:48.628Z,16.20
2022-09-03T12:13:40.479Z,23.33
2022-09-03T12:16:35.458Z,15.55
2022-09-03T12:19:12.697Z,17.20
2022-09-03T12:21:41.102Z,15.45
2022-09-03T12:24:13.545Z,14.88
2022-09-03T12:26:42.725Z,13.80
2022-09-03T12:29:27.578Z,10.68
2022-09-03T12:31:58.552Z,10.27
2022-09-03T12:34:27.370Z,11.00
2022-09-03T12:36:55.039Z,13.02
2022-09-03T12:42:20.719Z,19.30
2022-09-03T12:44:49.771Z,15.43
2022-09-03T12:47:36.449Z,21.17
2022-09-03T12:50:07.371Z,13.35
2022-09-03T12:52:37.382Z,13.68
2022-09-03T12:55:08.511Z,16.48
2022-09-03T12:57:42.581Z,17.20
2022-09-03T13:00:15.486Z,16.55
2022-09-03T13:02:51.485Z,14.80
2022-09-03T13:05:22.154Z,19.10
2022-09-03T13:07:53.074Z,14.93
2022-09-03T13:10:27.597Z,12.48
2022-09-03T13:12:59.740Z,14.15
2022-09-03T13:16:23.437Z,14.07
2022-09-03T13:19:02.500Z,9.68
2022-09-03T13:21:39.973Z,9.27
2022-09-03T13:24:25.958Z,11.75
2022-09-03T13:27:06.171Z,11.70
2022-09-03T13:29:45.740Z,9.63
2022-09-03T13:32:26.497Z,5.97
2022-09-03T13:34:57.410Z,7.60
2022-09-03T13:37:31.042Z,7.40
2022-09-03T13:40:00.878Z,7.82
2022-09-03T13:42:36.070Z,5.45
2022-09-03T13:45:09.259Z,6.18
2022-09-03T13:50:32.014Z,6.28
2022-09-03T13:53:06.131Z,6.95
2022-09-03T13:55:38.133Z,10.43
2022-09-03T13:58:11.979Z,5.65
2022-09-03T14:00:44.362Z,7.70
2022-09-03T14:03:24.482Z,6.30
2022-09-03T14:06:04.645Z,5.15
2022-09-03T14:08:35.698Z,5.03
2022-09-03T14:11:19.863Z,4.53
2022-09-03T14:14:00.564Z,7.43
2022-09-03T14:16:38.178Z,6.28
2022-09-03T14:19:14.440Z,3.85
2022-09-03T14:21:45.185Z,5.90
2022-09-03T14:24:16.626Z,4.68
2022-09-03T14:26:51.769Z,7.85
2022-09-03T14:29:23.546Z,11.25
2022-09-03T14:32:11.682Z,6.75
2022-09-03T14:34:51.976Z,5.70
2022-09-03T14:37:38.114Z,6.05
2022-09-03T14:40:15.904Z,7.65
2022-09-03T14:42:57.903Z,5.22
2022-09-03T14:45:51.479Z,4.25
2022-09-03T14:48:35.719Z,5.97
2022-09-03T14:51:19.953Z,7.15
2022-09-03T14:54:19.356Z,4.43
2022-09-03T14:56:50.918Z,4.22
2022-09-03T14:59:41.072Z,8.18
2022-09-03T15:02:41.368Z,6.72
2022-09-03T15:05:15.487Z,3.55
2022-09-03T15:07:49.318Z,4.40
2022-09-03T15:10:26.847Z,4.28
2022-09-03T15:12:58.945Z,3.72
2022-09-03T15:15:36.589Z,5.22
2022-09-03T15:18:17.550Z,4.78
2022-09-03T15:20:51.015Z,7.57
2022-09-03T15:26:16.356Z,4.47
2022-09-03T15:28:54.612Z,6.50
2022-09-03T15:31:26.186Z,5.25
2022-09-03T15:34:03.435Z,4.93
2022-09-03T15:36:36.985Z,5.03
2022-09-03T15:39:09.204Z,6.25
2022-09-03T15:41:41.529Z,8.18
2022-09-03T15:44:18.980Z,5.30
2022-09-03T15:46:58.998Z,5.90
2022-09-03T15:49:36.179Z,3.65
2022-09-03T15:52:12.612Z,5.43
2022-09-03T15:54:48.504Z,2.53
2022-09-03T15:57:22.334Z,4.50
2022-09-03T15:59:55.100Z,3.30
2022-09-03T16:02:28.387Z,4.50
2022-09-03T16:07:49.153Z,6.85
2022-09-03T16:10:24.524Z,4.35
2022-09-03T16:13:01.217Z,6.18
2022-09-03T16:15:30.510Z,9.25
2022-09-03T16:18:04.816Z,6.60
2022-09-03T16:20:37.334Z,7.28
2022-09-03T16:23:10.118Z,7.57
2022-09-03T16:25:48.884Z,6.80
2022-09-03T16:28:21.377Z,5.65
2022-09-03T16:31:04.114Z,6.05
2022-09-03T16:33:43.984Z,7.00
2022-09-03T16:36:29.046Z,7.05
2022-09-03T16:39:02.596Z,6.80
2022-09-03T16:41:36.611Z,6.60
2022-09-03T16:44:16.391Z,8.73
2022-09-03T16:46:51.168Z,9.32
2022-09-03T16:49:38.827Z,5.35
2022-09-03T16:52:15.954Z,4.93
2022-09-03T16:54:57.398Z,16.40
2022-09-03T16:57:44.045Z,6.68
2022-09-03T17:00:14.759Z,3.85
2022-09-03T17:03:05.178Z,5.97
2022-09-03T17:06:03.019Z,3.83
2022-09-03T17:08:40.022Z,3.53
2022-09-03T17:11:20.391Z,5.45
2022-09-03T17:14:07.828Z,4.00
2022-09-03T17:16:48.160Z,4.72
2022-09-03T17:19:24.973Z,4.03
2022-09-03T17:22:08.254Z,2.53
2022-09-03T17:24:51.984Z,13.73
2022-09-03T17:30:08.944Z,3.97
2022-09-03T17:33:26.230Z,4.65
2022-09-03T17:36:11.678Z,5.15
2022-09-03T17:43:27.241Z,5.45
2022-09-03T17:50:37.313Z,4.22
2022-09-03T17:53:25.306Z,3.85
2022-09-03T17:55:57.984Z,5.38
2022-09-03T17:58:31.309Z,5.47
2022-09-03T18:01:05.148Z,3.65
2022-09-03T18:40:40.799Z,10.27
2022-09-03T18:43:58.798Z,9.52
2022-09-03T18:50:42.789Z,8.70
2022-09-03T18:54:02.041Z,13.73
2022-09-03T18:57:10.312Z,14.95
2022-09-03T19:00:28.215Z,18.17
2022-09-03T19:03:47.351Z,15.02
2022-09-03T19:06:45.448Z,14.02
2022-09-03T19:09:45.316Z,15.25
2022-09-03T19:12:42.692Z,16.15
2022-09-03T19:15:38.830Z,10.60
2022-09-03T19:18:29.008Z,14.07
2022-09-03T19:25:46.324Z,10.05
2022-09-03T19:28:35.829Z,12.85
2022-09-03T19:31:54.056Z,9.55
2022-09-03T19:35:04.448Z,14.50
2022-09-03T19:37:55.844Z,15.07
2022-09-03T19:41:00.402Z,15.05
2022-09-03T19:46:46.684Z,18.52
2022-09-03T19:52:28.214Z,18.38
2022-09-03T19:55:16.309Z,12.38
2022-09-03T19:58:20.462Z,15.13
2022-09-03T20:01:13.181Z,14.00
2022-09-03T20:03:59.789Z,14.93
2022-09-03T20:06:45.395Z,18.20
2022-09-03T20:09:34.590Z,22.58
2022-09-03T20:12:07.395Z,23.58
2022-09-03T20:14:37.479Z,21.48
2022-09-03T20:17:19.206Z,19.92
2022-09-03T20:20:00.979Z,25.20
2022-09-03T20:22:33.669Z,39.17
2022-09-03T20:25:13.798Z,47.38
2022-09-03T20:27:52.055Z,40.50
2022-09-03T20:30:21.053Z,49.20
2022-09-03T20:33:11.045Z,52.35
2022-09-03T20:35:50.152Z,52.00
2022-09-03T20:38:48.204Z,49.58
2022-09-03T20:41:21.612Z,61.33
2022-09-03T20:44:10.258Z,57.30
2022-09-03T20:46:52.579Z,57.30
2022-09-03T20:49:31.658Z,71.55
2022-09-03T20:52:04.035Z,62.97
2022-09-03T20:54:36.117Z,63.08
2022-09-03T20:57:14.697Z,63.53
2022-09-03T20:59:59.429Z,60.10
2022-09-03T21:02:37.493Z,58.83
2022-09-03T21:05:17.544Z,80.57
2022-09-03T21:07:57.821Z,69.00
2022-09-03T21:10:32.865Z,67.95
2022-09-03T21:13:09.215Z,70.80
2022-09-03T21:15:49.535Z,72.38
2022-09-03T21:18:29.273Z,70.53
2022-09-03T21:21:08.637Z,67.57
2022-09-03T21:23:41.109Z,68.25
2022-09-03T21:26:14.719Z,60.72
2022-09-03T21:31:19.605Z,67.72
2022-09-03T21:33:50.086Z,72.85
2022-09-03T21:36:25.932Z,65.95
2022-09-03T21:39:09.024Z,71.50
2022-09-03T21:41:41.363Z,68.32
2022-09-03T21:44:15.129Z,72.88
2022-09-03T21:46:52.178Z,78.07
2022-09-03T21:49:24.655Z,70.38
2022-09-03T21:52:00.503Z,76.78
2022-09-03T21:54:29.173Z,85.60
2022-09-03T21:57:12.932Z,73.68
2022-09-03T22:00:03.027Z,72.82
2022-09-03T22:02:32.154Z,73.75
2022-09-03T22:05:00.392Z,80.03
2022-09-03T22:07:41.953Z,75.20
2022-09-03T22:10:16.791Z,82.47
2022-09-03T22:12:55.703Z,82.00
2022-09-03T22:15:23.537Z,82.53
2022-09-03T22:17:57.010Z,75.50
2022-09-03T22:22:58.069Z,77.13
2022-09-03T22:25:34.895Z,78.65
2022-09-03T22:28:11.644Z,79.13
2022-09-03T22:30:46.020Z,74.13
2022-09-03T22:33:21.718Z,83.30
2022-09-03T22:35:59.806Z,81.15
2022-09-03T22:39:00.998Z,79.10
2022-09-03T22:41:44.433Z,81.70
2022-09-03T22:44:22.514Z,79.05
2022-09-03T22:46:58.634Z,94.70
2022-09-03T22:49:35.069Z,80.00
2022-09-03T22:52:15.156Z,100.47
2022-09-03T22:55:00.249Z,89.25
2022-09-03T22:57:33.128Z,85.82
2022-09-03T23:00:02.832Z,91.00
2022-09-03T23:02:31.575Z,77.82
2022-09-03T23:05:06.277Z,79.47
2022-09-03T23:07:46.215Z,80.35
2022-09-03T23:10:22.609Z,86.05
2022-09-03T23:13:03.525Z,109.40
2022-09-03T23:15:33.951Z,104.60
2022-09-03T23:18:08.943Z,99.28
2022-09-03T23:20:39.768Z,97.53
2022-09-03T23:23:15.711Z,103.43
2022-09-03T23:25:48.957Z,97.90
2022-09-03T23:28:24.357Z,105.07
2022-09-03T23:30:51.910Z,101.28
2022-09-03T23:33:18.788Z,97.47
2022-09-03T23:35:54.411Z,102.63
2022-09-03T23:38:31.169Z,100.28
2022-09-03T23:41:04.139Z,97.03
2022-09-03T23:44:03.340Z,103.32
2022-09-03T23:46:36.841Z,85.22
2022-09-03T23:49:23.936Z,101.43
2022-09-03T23:52:03.607Z,93.07
2022-09-03T23:54:38.624Z,100.88
2022-09-03T23:57:14.374Z,97.78
